Time;durP1;ratioP1;P1;durP2;ratioP2;P2;SDS_P1;SDS_P2;PMS_P1;PMS_P2;Temp;Humidity;BMP_temperature;BMP_pressure;BME280_temperature;BME280_humidity;BME280_pressure;Samples;Min_cycle;Max_cycle;Signal;HPM_P1;HPM_P2
2024/01/05 00:02:03;;;;;;;2.15;1.95;;;;;;;1.65;100.00;149083.66;13047108;22;20023;-79
2024/01/05 00:07:09;;;;;;;2.30;2.08;;;;;;;1.87;100.00;149137.53;13072798;22;20051;-81
2024/01/05 00:12:11;;;;;;;2.58;2.38;;;;;;;1.66;100.00;149084.94;13043925;22;20019;-79
2024/01/05 00:17:12;;;;;;;2.72;2.30;;;;;;;1.59;100.00;149066.97;13077347;22;20019;-80
2024/01/05 00:22:14;;;;;;;2.67;2.42;;;;;;;1.55;100.00;149056.72;13062711;22;20027;-81
2024/01/05 00:27:16;;;;;;;3.80;2.80;;;;;;;1.62;100.00;149074.69;13060102;22;20018;-79
2024/01/05 00:32:17;;;;;;;3.03;2.45;;;;;;;1.74;100.00;149105.47;13096257;22;20066;-79
2024/01/05 00:37:19;;;;;;;3.40;2.72;;;;;;;1.93;100.00;149152.91;13083811;22;20374;-80
2024/01/05 00:42:21;;;;;;;3.47;2.67;;;;;;;1.76;100.00;149110.56;13061324;22;20027;-80
2024/01/05 00:47:23;;;;;;;3.53;2.80;;;;;;;1.94;100.00;149155.44;13088628;22;20027;-79
2024/01/05 00:52:25;;;;;;;3.55;3.25;;;;;;;1.90;100.00;149146.47;13084944;22;20019;-77
2024/01/05 00:57:27;;;;;;;3.38;2.85;;;;;;;1.68;100.00;149091.38;13049351;22;20330;-80
2024/01/05 01:02:29;;;;;;;4.82;3.40;;;;;;;1.93;100.00;149154.16;13052153;22;20091;-81
2024/01/05 01:07:31;;;;;;;3.50;2.83;;;;;;;2.10;100.00;149196.50;13076606;22;20015;-80
2024/01/05 01:12:32;;;;;;;4.50;3.15;;;;;;;1.79;100.00;149117.00;13078367;22;20023;-79
2024/01/05 01:17:35;;;;;;;3.90;3.50;;;;;;;2.18;100.00;149215.75;13052807;22;20019;-80
2024/01/05 01:22:37;;;;;;;3.17;2.83;;;;;;;2.31;100.00;149247.81;13079915;22;20453;-80
2024/01/05 01:27:39;;;;;;;4.30;3.33;;;;;;;1.90;100.00;149146.47;13079882;22;20015;-80
2024/01/05 01:32:42;;;;;;;6.95;3.58;;;;;;;2.20;100.00;149222.13;13025974;22;20023;-80
2024/01/05 01:37:44;;;;;;;3.70;3.20;;;;;;;2.08;100.00;149191.41;13051740;22;20016;-80
2024/01/05 01:42:46;;;;;;;3.83;3.42;;;;;;;2.29;100.00;149243.94;13051918;22;20030;-79
2024/01/05 01:47:49;;;;;;;4.57;3.75;;;;;;;2.09;100.00;149193.94;13090143;22;20035;-80
2024/01/05 01:52:52;;;;;;;5.18;4.25;;;;;;;1.86;100.00;149136.25;13092025;22;20038;-80
2024/01/05 01:57:54;;;;;;;4.82;4.35;;;;;;;1.92;100.00;149150.34;13057388;22;20040;-80
2024/01/05 02:02:56;;;;;;;5.60;4.20;;;;;;;2.28;100.00;149241.38;13079619;22;20023;-80
2024/01/05 02:07:58;;;;;;;8.23;3.97;;;;;;;2.38;100.00;149267.03;13078643;22;20066;-80
2024/01/05 02:13:00;;;;;;;4.38;3.95;;;;;;;2.24;100.00;149232.41;13024821;22;20026;-79
2024/01/05 02:18:11;;;;;;;5.97;4.50;;;;;;;2.44;100.00;149281.19;13079444;22;20039;-82
2024/01/05 02:23:24;;;;;;;6.03;3.63;;;;;;;2.41;100.00;149273.47;13048670;22;20019;-81
2024/01/05 02:28:26;;;;;;;6.85;5.15;;;;;;;2.33;100.00;149254.22;13047446;22;20361;-81
2024/01/05 02:33:28;;;;;;;5.38;4.60;;;;;;;2.15;100.00;149208.03;13046773;22;20019;-79
2024/01/05 02:38:30;;;;;;;5.88;4.88;;;;;;;1.89;100.00;149143.91;13023312;22;20011;-80
2024/01/05 02:43:32;;;;;;;6.40;5.68;;;;;;;2.01;100.00;149174.69;13075608;22;20011;-81
2024/01/05 02:48:33;;;;;;;6.90;5.95;;;;;;;2.07;100.00;149188.78;13053746;22;20019;-80
2024/01/05 02:53:35;;;;;;;5.85;5.20;;;;;;;2.16;100.00;149211.88;13053666;22;20034;-81
2024/01/05 02:58:38;;;;;;;6.07;5.43;;;;;;;2.12;100.00;149200.34;13075128;22;20015;-79
2024/01/05 03:03:40;;;;;;;6.35;5.35;;;;;;;2.18;100.00;149215.75;13022571;22;20030;-81
2024/01/05 03:08:45;;;;;;;6.05;4.57;;;;;;;2.32;100.00;149251.66;13078182;22;20314;-79
2024/01/05 03:13:47;;;;;;;6.40;5.55;;;;;;;2.27;100.00;149238.84;13075640;22;20022;-80
2024/01/05 03:18:49;;;;;;;5.60;4.97;;;;;;;2.18;100.00;149217.03;13074731;22;20011;-79
2024/01/05 03:23:51;;;;;;;5.97;5.05;;;;;;;1.95;100.00;149158.06;13050389;22;20077;-81
2024/01/05 03:28:53;;;;;;;5.78;5.18;;;;;;;1.75;100.00;149108.03;13077403;22;20019;-79
2024/01/05 03:33:54;;;;;;;6.07;5.00;;;;;;;1.64;100.00;149079.78;13071716;22;20020;-80
2024/01/05 03:38:56;;;;;;;5.97;5.22;;;;;;;1.70;100.00;149095.22;13072885;22;20065;-80
2024/01/05 03:43:58;;;;;;;5.95;4.43;;;;;;;1.79;100.00;149117.00;13072959;22;20015;-81
2024/01/05 03:49:00;;;;;;;4.95;4.45;;;;;;;1.71;100.00;149099.03;13072544;22;20334;-80
2024/01/05 03:54:02;;;;;;;8.88;4.65;;;;;;;1.93;100.00;149154.16;13071072;22;20019;-80
2024/01/05 03:59:05;;;;;;;7.07;4.80;;;;;;;2.07;100.00;149187.50;13071996;22;20033;-80
2024/01/05 04:04:07;;;;;;;5.10;4.35;;;;;;;1.78;100.00;149115.72;13073114;22;20030;-80
2024/01/05 04:09:09;;;;;;;5.20;4.70;;;;;;;1.88;100.00;149140.06;13072607;22;20019;-80
2024/01/05 04:14:11;;;;;;;6.55;5.43;;;;;;;2.00;100.00;149172.13;13071833;22;20049;-81
2024/01/05 04:19:13;;;;;;;5.60;5.10;;;;;;;1.71;100.00;149099.03;13090083;22;20022;-78
2024/01/05 04:24:15;;;;;;;7.38;5.18;;;;;;;1.58;100.00;149065.72;13065601;22;20015;-80
2024/01/05 04:29:17;;;;;;;6.43;5.82;;;;;;;1.62;100.00;149075.97;13073649;22;20353;-80
2024/01/05 04:34:19;;;;;;;6.38;5.50;;;;;;;1.44;100.00;149031.09;13076327;22;20022;-81
2024/01/05 04:39:21;;;;;;;8.95;5.05;;;;;;;1.36;100.00;149010.59;13081247;22;20038;-81
2024/01/05 04:44:22;;;;;;;5.50;4.88;;;;;;;1.33;100.00;149001.59;13062105;22;20019;-80
2024/01/05 04:49:26;;;;;;;6.53;5.30;;;;;;;1.26;100.00;148986.25;13052934;22;20357;-81
2024/01/05 04:54:28;;;;;;;5.95;5.13;;;;;;;1.20;100.00;148970.88;13050850;22;20019;-81
2024/01/05 04:59:30;;;;;;;6.57;5.03;;;;;;;0.89;100.00;148891.47;13049828;22;20037;-80
2024/01/05 05:04:32;;;;;;;5.55;4.97;;;;;;;0.77;100.00;148860.69;13078956;22;20015;-80
2024/01/05 05:09:33;;;;;;;5.63;4.63;;;;;;;1.13;100.00;148951.66;13051391;22;20484;-80
2024/01/05 05:14:35;;;;;;;6.25;5.22;;;;;;;1.13;100.00;148952.94;13061038;22;20019;-80
2024/01/05 05:19:37;;;;;;;4.55;4.15;;;;;;;0.91;100.00;148897.84;13085520;22;20019;-81
2024/01/05 05:24:39;;;;;;;5.50;4.95;;;;;;;0.86;100.00;148885.03;13076215;22;20015;-80
2024/01/05 05:29:40;;;;;;;5.38;4.43;;;;;;;0.96;100.00;148909.34;13077569;22;20108;-80
2024/01/05 05:34:44;;;;;;;5.03;4.03;;;;;;;0.93;100.00;148902.97;13077258;22;20045;-79
2024/01/05 05:39:46;;;;;;;4.32;3.72;;;;;;;0.98;100.00;148914.50;13048378;22;20015;-81
2024/01/05 05:44:47;;;;;;;4.65;4.05;;;;;;;0.88;100.00;148888.84;13073912;22;20064;-80
2024/01/05 05:49:49;;;;;;;5.85;3.95;;;;;;;0.93;100.00;148902.97;13074855;22;20068;-81
2024/01/05 05:54:51;;;;;;;6.10;4.05;;;;;;;0.88;100.00;148888.84;13048475;22;20071;-79
2024/01/05 05:59:53;;;;;;;4.30;3.63;;;;;;;0.83;100.00;148877.31;13086886;22;20038;-81
2024/01/05 06:04:55;;;;;;;4.97;3.45;;;;;;;0.82;100.00;148874.78;13097404;22;20011;-81
2024/01/05 06:09:58;;;;;;;3.58;3.17;;;;;;;0.89;100.00;148892.72;13076134;22;20016;-81
2024/01/05 06:15:00;;;;;;;5.07;3.47;;;;;;;0.92;100.00;148899.09;13075482;22;20445;-81
2024/01/05 06:20:02;;;;;;;5.13;4.00;;;;;;;1.31;100.00;148996.50;13076419;22;20064;-81
2024/01/05 06:25:04;;;;;;;5.47;4.90;;;;;;;1.36;100.00;149010.59;13051170;22;20019;-80
2024/01/05 06:30:10;;;;;;;5.07;4.57;;;;;;;1.25;100.00;148983.69;13056664;22;20007;-79
2024/01/05 06:35:13;;;;;;;5.37;4.00;;;;;;;1.25;100.00;148983.69;13081041;22;20027;-81
2024/01/05 06:40:15;;;;;;;4.45;4.00;;;;;;;1.45;100.00;149033.66;13052150;22;20016;-81
2024/01/05 06:45:16;;;;;;;5.10;4.38;;;;;;;1.62;100.00;149074.69;13077383;22;20034;-80
2024/01/05 06:50:18;;;;;;;4.18;3.60;;;;;;;1.61;100.00;149073.41;13040626;22;20024;-79
2024/01/05 06:55:20;;;;;;;6.55;4.40;;;;;;;1.68;100.00;149090.06;13067571;22;20016;-81
2024/01/05 07:00:22;;;;;;;5.07;4.00;;;;;;;1.63;100.00;149078.50;13044298;22;20023;-80
2024/01/05 07:05:24;;;;;;;5.05;3.38;;;;;;;1.72;100.00;149101.59;13046300;22;20383;-80
2024/01/05 07:10:25;;;;;;;4.45;3.35;;;;;;;1.91;100.00;149147.78;13070528;22;20026;-79
2024/01/05 07:15:29;;;;;;;4.63;3.97;;;;;;;2.06;100.00;149184.97;13079131;22;20014;-79
2024/01/05 07:20:30;;;;;;;5.07;4.57;;;;;;;2.08;100.00;149190.06;13098547;22;20019;-80
2024/01/05 07:25:32;;;;;;;6.65;4.43;;;;;;;2.23;100.00;149229.84;13094172;22;20011;-81
2024/01/05 07:30:37;;;;;;;5.50;3.58;;;;;;;2.33;100.00;149252.94;13070391;22;20026;-80
2024/01/05 07:35:39;;;;;;;6.07;4.22;;;;;;;2.36;100.00;149260.63;13069662;22;20015;-81
2024/01/05 07:40:40;;;;;;;5.13;3.83;;;;;;;2.27;100.00;149238.84;13077829;22;20030;-79
2024/01/05 07:45:42;;;;;;;5.43;4.00;;;;;;;2.50;100.00;149297.81;13053071;22;20022;-79
2024/01/05 07:50:44;;;;;;;5.57;4.70;;;;;;;2.72;100.00;149353.00;13054782;22;20094;-80
2024/01/05 07:55:46;;;;;;;5.45;3.97;;;;;;;2.81;100.00;149374.81;13078092;22;20383;-81
2024/01/05 08:00:48;;;;;;;5.18;4.68;;;;;;;2.66;100.00;149337.63;13076816;22;20023;-82
2024/01/05 08:05:51;;;;;;;6.95;5.07;;;;;;;2.78;100.00;149368.38;13032105;22;20029;-82
2024/01/05 08:10:53;;;;;;;8.18;4.60;;;;;;;2.99;100.00;149421.00;13066690;22;20022;-81
2024/01/05 08:15:54;;;;;;;7.18;5.55;;;;;;;2.99;100.00;149419.72;13057879;22;20039;-80
2024/01/05 08:20:57;;;;;;;8.40;6.10;;;;;;;3.13;100.00;149454.38;13103109;22;20011;-80
2024/01/05 08:26:00;;;;;;;6.32;4.82;;;;;;;3.18;100.00;149468.47;13083014;22;20007;-81
2024/01/05 08:31:01;;;;;;;5.65;4.90;;;;;;;3.11;100.00;149450.53;13075959;22;20016;-80
2024/01/05 08:36:04;;;;;;;10.18;5.75;;;;;;;3.24;100.00;149483.91;13105205;22;19999;-80
2024/01/05 08:41:06;;;;;;;7.80;5.78;;;;;;;3.16;100.00;149462.09;13107558;22;19999;-79
2024/01/05 08:46:08;;;;;;;5.57;4.53;;;;;;;3.40;100.00;149522.41;13082669;22;20445;-80
2024/01/05 08:51:10;;;;;;;7.50;5.22;;;;;;;3.47;100.00;149540.41;13084311;22;20011;-78
2024/01/05 08:56:13;;;;;;;7.38;5.43;;;;;;;3.43;100.00;149530.13;13108304;22;20015;-79
2024/01/05 09:01:14;;;;;;;7.97;5.97;;;;;;;3.60;100.00;149572.50;13106341;22;20015;-78
2024/01/05 09:06:16;;;;;;;6.60;5.15;;;;;;;3.79;100.00;149621.28;13080494;22;20026;-80
2024/01/05 09:11:20;;;;;;;6.28;4.88;;;;;;;3.66;100.00;149587.91;13107813;22;20387;-79
2024/01/05 09:16:22;;;;;;;6.40;5.15;;;;;;;3.89;100.00;149645.69;13095934;22;20013;-80
2024/01/05 09:21:24;;;;;;;6.15;5.30;;;;;;;4.06;100.00;149689.34;13065434;22;20006;-80
2024/01/05 09:26:26;;;;;;;6.05;5.38;;;;;;;4.10;100.00;149699.63;13095151;22;20059;-81
2024/01/05 09:31:28;;;;;;;6.20;5.15;;;;;;;4.22;100.00;149729.19;13078244;22;20035;-81
2024/01/05 09:36:30;;;;;;;7.43;4.70;;;;;;;4.36;100.00;149765.16;13080028;22;20039;-81
2024/01/05 09:41:31;;;;;;;7.30;5.82;;;;;;;4.74;100.00;149861.56;13081991;22;20016;-82
2024/01/05 09:46:40;;;;;;;5.80;4.53;;;;;;;4.77;100.00;149867.94;13091066;22;20016;-81
2024/01/05 09:51:43;;;;;;;5.57;4.47;;;;;;;4.76;100.00;149866.66;13080608;22;20025;-81
2024/01/05 09:56:49;;;;;;;5.57;4.47;;;;;;;4.68;100.00;149846.09;13081275;22;20015;-81
2024/01/05 10:01:50;;;;;;;6.85;5.18;;;;;;;5.01;100.00;149929.69;13080090;22;20026;-80
2024/01/05 10:07:03;;;;;;;5.35;4.07;;;;;;;4.90;100.00;149901.38;13080401;22;20037;-80
2024/01/05 10:12:12;;;;;;;4.97;4.47;;;;;;;5.27;100.00;149993.97;13077134;22;20015;-81
2024/01/05 10:17:15;;;;;;;7.97;5.07;;;;;;;5.30;100.00;150002.94;13086115;22;20067;-80
2024/01/05 10:22:19;;;;;;;5.28;4.22;;;;;;;5.62;100.00;150082.66;13080293;22;20016;-81
2024/01/05 10:27:27;;;;;;;6.72;4.43;;;;;;;5.98;100.00;150172.78;13079558;22;20441;-80
2024/01/05 10:32:29;;;;;;;4.97;3.15;;;;;;;6.59;100.00;150327.19;13080929;22;20019;-81
2024/01/05 10:37:31;;;;;;;3.83;2.38;;;;;;;6.79;100.00;150377.41;13079182;22;20060;-82
2024/01/05 10:42:34;;;;;;;4.72;4.03;;;;;;;7.06;100.00;150445.66;13077948;22;20019;-80
2024/01/05 10:47:37;;;;;;;6.20;2.40;;;;;;;7.05;100.00;150444.38;13077348;22;20020;-82
2024/01/05 10:52:42;;;;;;;2.88;1.90;;;;;;;7.17;100.00;150472.66;13079541;22;20085;-82
2024/01/05 10:57:45;;;;;;;3.03;2.17;;;;;;;7.38;100.00;150525.47;13080167;22;20019;-81
2024/01/05 11:02:50;;;;;;;2.05;1.35;;;;;;;7.37;100.00;150524.19;13080842;22;20022;-82
2024/01/05 11:07:52;;;;;;;4.22;1.30;;;;;;;7.36;100.00;150521.63;13081046;22;20011;-81
2024/01/05 11:13:20;;;;;;;2.10;1.13;;;;;;;7.37;97.88;150522.91;13082542;22;20075;-81
2024/01/05 11:19:16;;;;;;;2.00;1.13;;;;;;;7.33;96.76;150515.16;13026902;22;20145;-80
2024/01/05 11:24:18;;;;;;;3.58;1.10;;;;;;;7.41;96.98;150533.22;12927751;22;20092;-80
2024/01/05 11:29:44;;;;;;;3.50;1.33;;;;;;;7.68;93.79;150601.50;13079546;22;20011;-80
2024/01/05 11:34:46;;;;;;;2.92;1.50;;;;;;;7.13;96.47;150462.34;13076212;22;20019;-80
2024/01/05 11:39:49;;;;;;;2.20;1.08;;;;;;;7.39;95.69;150528.03;13082343;22;20016;-81
2024/01/05 11:44:52;;;;;;;2.05;1.20;;;;;;;7.50;93.01;150556.41;13084304;22;20069;-81
2024/01/05 11:49:54;;;;;;;3.63;1.05;;;;;;;7.66;91.28;150597.66;13077139;22;20035;-81
2024/01/05 11:55:10;;;;;;;2.47;1.20;;;;;;;7.85;88.41;150645.31;13091251;22;20019;-82
2024/01/05 12:00:12;;;;;;;3.50;1.10;;;;;;;8.13;86.04;150716.16;13097000;22;20041;-80
2024/01/05 12:05:16;;;;;;;2.65;1.30;;;;;;;7.71;90.52;150609.25;13080184;22;20573;-81
2024/01/05 12:10:28;;;;;;;1.60;1.38;;;;;;;7.78;90.04;150627.25;13078364;22;20021;-81
2024/01/05 12:15:30;;;;;;;2.53;1.27;;;;;;;8.27;86.87;150752.22;13049802;22;20023;-80
2024/01/05 12:20:32;;;;;;;2.05;1.25;;;;;;;8.13;87.71;150716.16;13074131;22;20031;-80
2024/01/05 12:25:35;;;;;;;2.63;1.27;;;;;;;8.06;88.72;150699.44;13076639;22;20059;-81
2024/01/05 12:30:37;;;;;;;1.40;0.60;;;;;;;8.48;77.28;150803.84;13087530;22;20387;-81
2024/01/05 12:35:40;;;;;;;1.70;0.60;;;;;;;8.72;74.83;150864.44;13058323;22;20019;-81
2024/01/05 12:40:42;;;;;;;2.70;0.85;;;;;;;8.77;73.85;150877.38;13049601;22;20019;-81
2024/01/05 12:45:46;;;;;;;2.20;1.10;;;;;;;8.71;75.11;150863.16;13050166;22;20012;-80
2024/01/05 12:50:48;;;;;;;1.52;0.63;;;;;;;8.67;75.62;150851.53;13075625;22;20011;-82
2024/01/05 12:55:50;;;;;;;1.48;0.60;;;;;;;8.65;75.09;150846.41;13076585;22;20400;-82
2024/01/05 13:00:52;;;;;;;1.02;0.63;;;;;;;8.38;77.41;150779.38;13075436;22;20027;-80
2024/01/05 13:06:06;;;;;;;1.20;0.55;;;;;;;8.40;78.21;150783.22;13075056;22;20022;-80
2024/01/05 13:11:08;;;;;;;0.98;0.52;;;;;;;8.50;78.40;150809.00;13052903;22;20015;-80
2024/01/05 13:16:10;;;;;;;1.23;0.60;;;;;;;8.55;76.92;150821.94;13079158;22;20015;-81
2024/01/05 13:21:12;;;;;;;0.75;0.60;;;;;;;8.46;75.31;150800.00;13079826;22;20357;-81
2024/01/05 13:26:13;;;;;;;1.73;0.50;;;;;;;8.32;78.80;150763.84;13051607;22;20058;-82
2024/01/05 13:31:15;;;;;;;2.00;1.05;;;;;;;8.24;81.01;150744.53;13080324;22;20026;-81
2024/01/05 13:36:17;;;;;;;1.42;0.85;;;;;;;8.16;82.76;150722.63;13069888;22;20082;-80
2024/01/05 13:41:19;;;;;;;0.98;0.70;;;;;;;8.00;85.72;150683.94;13077055;22;20015;-82
2024/01/05 13:46:20;;;;;;;1.70;0.52;;;;;;;8.23;80.24;150741.91;13082821;22;20046;-81
2024/01/05 13:51:22;;;;;;;1.00;0.47;;;;;;;8.44;77.06;150794.81;13077994;22;20395;-82
2024/01/05 13:56:26;;;;;;;1.88;0.52;;;;;;;8.37;77.73;150775.47;13077432;22;20019;-81
2024/01/05 14:01:28;;;;;;;1.75;0.70;;;;;;;8.32;78.03;150765.16;13079038;22;20491;-80
2024/01/05 14:06:29;;;;;;;0.80;0.50;;;;;;;8.24;79.39;150744.53;13085988;22;20019;-81
2024/01/05 14:11:31;;;;;;;1.25;0.40;;;;;;;8.12;79.48;150712.31;13077119;22;20026;-81
2024/01/05 14:16:33;;;;;;;2.67;1.58;;;;;;;7.98;81.69;150678.81;13077914;22;20035;-82
2024/01/05 14:21:35;;;;;;;3.13;1.30;;;;;;;8.11;83.02;150709.75;13052599;22;20015;-80
2024/01/05 14:26:37;;;;;;;2.30;1.30;;;;;;;8.15;83.84;150720.06;13081740;22;20541;-81
2024/01/05 14:31:39;;;;;;;2.92;1.17;;;;;;;7.76;86.09;150622.13;13090622;22;20003;-80
2024/01/05 14:36:40;;;;;;;2.65;1.33;;;;;;;7.64;87.05;150592.47;13074439;22;20026;-81
2024/01/05 14:41:42;;;;;;;2.63;1.60;;;;;;;7.21;90.91;150482.97;13080281;22;20048;-81
2024/01/05 14:46:44;;;;;;;4.30;1.63;;;;;;;7.30;90.71;150507.47;13079318;22;20015;-81
2024/01/05 14:51:49;;;;;;;3.05;1.35;;;;;;;7.03;93.07;150439.19;13079201;22;20031;-81
2024/01/05 14:56:50;;;;;;;4.05;1.60;;;;;;;7.02;93.94;150435.34;13077462;22;20429;-80
2024/01/05 15:01:52;;;;;;;4.32;2.05;;;;;;;6.97;93.24;150422.47;13077978;22;20026;-82
2024/01/05 15:06:54;;;;;;;3.95;1.67;;;;;;;7.20;91.17;150480.41;13074560;22;20008;-82
2024/01/05 15:11:56;;;;;;;4.00;1.73;;;;;;;6.81;94.29;150382.53;13072892;22;20020;-82
2024/01/05 15:16:59;;;;;;;4.45;1.60;;;;;;;6.62;96.40;150333.63;13076761;22;20019;-81
2024/01/05 15:22:01;;;;;;;2.75;1.98;;;;;;;6.41;98.01;150282.13;13064064;22;20027;-82
2024/01/05 15:27:03;;;;;;;3.35;2.47;;;;;;;6.21;100.00;150230.69;13055671;22;20015;-81
2024/01/05 15:32:06;;;;;;;2.65;1.95;;;;;;;6.30;100.00;150255.13;13078267;22;20023;-82
2024/01/05 15:37:07;;;;;;;4.32;2.45;;;;;;;6.42;98.32;150284.75;13077991;22;20015;-82
2024/01/05 15:42:09;;;;;;;3.20;2.00;;;;;;;6.24;99.96;150239.72;13075271;22;20468;-81
2024/01/05 15:47:11;;;;;;;5.40;2.30;;;;;;;6.30;99.64;150255.13;13075384;22;20022;-81
2024/01/05 15:52:13;;;;;;;4.13;2.60;;;;;;;6.16;100.00;150217.81;13018254;22;20019;-84
2024/01/05 15:57:15;;;;;;;5.50;2.75;;;;;;;6.19;100.00;150226.81;13074472;22;20064;-84
2024/01/05 16:02:17;;;;;;;10.68;7.75;;;;;;;6.19;100.00;150225.53;13080049;22;20077;-83
2024/01/05 16:07:19;;;;;;;6.22;4.40;;;;;;;6.18;100.00;150222.97;13076114;22;20011;-83
2024/01/05 16:12:20;;;;;;;4.90;3.15;;;;;;;6.20;100.00;150228.13;13071450;22;20527;-81
2024/01/05 16:17:22;;;;;;;5.40;2.95;;;;;;;6.10;100.00;150202.34;13071329;22;20011;-82
2024/01/05 16:22:31;;;;;;;3.58;2.33;;;;;;;6.26;100.00;150244.84;13043594;22;20023;-81
2024/01/05 16:27:32;;;;;;;4.30;2.85;;;;;;;6.36;99.89;150269.28;13072303;22;20015;-83
2024/01/05 16:32:37;;;;;;;4.45;2.95;;;;;;;6.25;100.00;150241.00;13081133;22;20022;-79
2024/01/05 16:37:43;;;;;;;3.72;2.45;;;;;;;6.19;100.00;150226.81;13082096;22;20012;-82
2024/01/05 16:42:45;;;;;;;4.43;3.22;;;;;;;6.17;100.00;150221.69;13085691;22;20026;-84
2024/01/05 16:47:46;;;;;;;4.18;2.83;;;;;;;5.99;100.00;150176.66;13078853;22;20023;-82
2024/01/05 16:52:48;;;;;;;5.82;3.55;;;;;;;6.27;100.00;150246.13;13047817;22;20019;-83
2024/01/05 16:57:51;;;;;;;5.70;3.65;;;;;;;5.93;100.00;150159.91;13075297;22;20454;-82
2024/01/05 17:02:52;;;;;;;6.30;3.53;;;;;;;5.90;100.00;150153.44;13074337;22;20453;-83
2024/01/05 17:07:54;;;;;;;5.28;3.85;;;;;;;5.82;100.00;150134.13;13075208;22;20055;-82
2024/01/05 17:12:56;;;;;;;4.88;3.65;;;;;;;5.72;100.00;150107.13;13075920;22;20042;-83
2024/01/05 17:17:58;;;;;;;4.43;3.63;;;;;;;6.04;100.00;150189.50;13077408;22;20020;-82
2024/01/05 17:23:00;;;;;;;6.70;4.07;;;;;;;6.26;98.80;150243.56;13048926;22;20019;-80
2024/01/05 17:28:01;;;;;;;4.63;4.15;;;;;;;6.13;99.55;150210.09;13074430;22;20093;-82
2024/01/05 17:33:04;;;;;;;7.72;4.30;;;;;;;6.01;100.00;150180.47;13048394;22;20026;-82
2024/01/05 17:38:05;;;;;;;6.75;4.45;;;;;;;6.05;100.00;150192.06;13048450;22;20362;-81
2024/01/05 17:43:08;;;;;;;6.28;3.67;;;;;;;6.03;99.45;150185.66;13075990;22;20019;-82
2024/01/05 17:48:12;;;;;;;5.95;4.35;;;;;;;5.54;100.00;150063.41;13083218;22;20007;-82
2024/01/05 17:53:14;;;;;;;5.78;3.90;;;;;;;5.52;100.00;150058.22;13078954;22;20019;-82
2024/01/05 17:58:16;;;;;;;7.57;5.30;;;;;;;5.34;100.00;150011.94;13091629;22;20075;-80
2024/01/05 18:03:18;;;;;;;5.97;4.38;;;;;;;5.26;100.00;149992.63;13095132;22;20016;-83
2024/01/05 18:08:19;;;;;;;8.98;5.35;;;;;;;5.55;100.00;150065.97;13086466;22;20023;-81
2024/01/05 18:13:23;;;;;;;9.73;5.97;;;;;;;5.78;100.00;150123.84;13087598;22;20030;-81
2024/01/05 18:18:24;;;;;;;7.20;4.85;;;;;;;5.94;100.00;150162.50;13078840;22;20337;-81
2024/01/05 18:23:26;;;;;;;6.35;5.40;;;;;;;5.95;100.00;150165.06;13077245;22;20073;-81
2024/01/05 18:28:28;;;;;;;8.52;5.72;;;;;;;6.01;100.00;150181.75;13083383;22;20019;-80
2024/01/05 18:33:30;;;;;;;7.03;5.15;;;;;;;5.64;100.00;150086.56;13097947;22;20015;-77
2024/01/05 18:38:32;;;;;;;5.85;5.10;;;;;;;5.34;100.00;150010.66;13055344;22;20015;-80
2024/01/05 18:43:34;;;;;;;6.63;4.13;;;;;;;5.36;100.00;150017.13;13071966;22;20019;-80
2024/01/05 18:48:37;;;;;;;7.65;5.47;;;;;;;5.27;100.00;149995.25;13046513;22;20022;-80
2024/01/05 18:53:40;;;;;;;9.23;6.63;;;;;;;5.31;100.00;150005.53;13078861;22;20449;-82
2024/01/05 18:58:42;;;;;;;6.43;5.25;;;;;;;5.10;100.00;149950.25;13052377;22;20480;-81
2024/01/05 19:03:43;;;;;;;9.35;6.18;;;;;;;5.25;100.00;149990.09;13080646;22;20046;-84
2024/01/05 19:08:45;;;;;;;34.53;5.97;;;;;;;5.46;100.00;150041.53;13083488;22;20090;-82
2024/01/05 19:13:47;;;;;;;8.05;5.75;;;;;;;5.18;100.00;149970.78;13083753;22;20453;-82
2024/01/05 19:18:50;;;;;;;7.13;5.45;;;;;;;5.21;100.00;149978.50;13058800;22;20015;-83
2024/01/05 19:23:52;;;;;;;6.57;5.47;;;;;;;4.98;100.00;149920.66;13084720;22;20023;-83
2024/01/05 19:28:54;;;;;;;7.07;5.57;;;;;;;4.71;100.00;149852.56;13084847;22;20086;-82
2024/01/05 19:33:56;;;;;;;9.88;6.50;;;;;;;4.71;100.00;149853.81;13059608;22;20072;-83
2024/01/05 19:38:57;;;;;;;9.50;5.65;;;;;;;4.66;100.00;149840.97;13083505;22;20016;-82
2024/01/05 19:43:59;;;;;;;6.38;5.45;;;;;;;4.45;100.00;149787.00;13089096;22;20011;-83
2024/01/05 19:49:02;;;;;;;6.40;5.22;;;;;;;4.33;100.00;149757.44;13097253;22;20027;-82
2024/01/05 19:54:04;;;;;;;7.60;5.93;;;;;;;4.27;100.00;149742.03;13105522;22;20003;-83
2024/01/05 19:59:05;;;;;;;6.90;6.20;;;;;;;4.27;100.00;149742.03;13103988;22;20045;-83
2024/01/05 20:04:07;;;;;;;7.32;6.05;;;;;;;4.20;100.00;149725.31;13102650;22;20019;-83
2024/01/05 20:09:10;;;;;;;7.45;5.88;;;;;;;4.45;100.00;149788.28;13094533;22;20016;-82
2024/01/05 20:14:12;;;;;;;8.32;6.20;;;;;;;4.31;100.00;149752.31;13069049;22;20093;-83
2024/01/05 20:19:16;;;;;;;8.40;6.07;;;;;;;4.15;100.00;149711.19;13059729;22;20019;-83
2024/01/05 20:24:20;;;;;;;9.43;7.32;;;;;;;4.27;100.00;149742.03;13086293;22;20098;-81
2024/01/05 20:29:23;;;;;;;8.93;7.25;;;;;;;4.17;100.00;149717.63;13087330;22;20012;-84
2024/01/05 20:34:25;;;;;;;8.55;6.28;;;;;;;4.05;100.00;149686.78;13081933;22;20465;-80
2024/01/05 20:39:27;;;;;;;6.97;5.82;;;;;;;3.99;100.00;149672.69;13095995;22;20046;-82
2024/01/05 20:44:29;;;;;;;8.73;6.95;;;;;;;3.89;100.00;149645.69;13094275;22;20019;-83
2024/01/05 20:49:30;;;;;;;7.47;6.30;;;;;;;3.75;100.00;149611.00;13085543;22;20026;-82
2024/01/05 20:54:32;;;;;;;10.27;6.55;;;;;;;3.63;100.00;149581.50;13059131;22;20035;-82
2024/01/05 20:59:38;;;;;;;9.75;7.68;;;;;;;3.85;100.00;149635.41;13085289;22;20019;-83
2024/01/05 21:04:39;;;;;;;11.40;6.05;;;;;;;3.59;100.00;149569.94;13084761;22;20015;-82
2024/01/05 21:09:41;;;;;;;8.55;6.65;;;;;;;3.46;100.00;149539.13;13088131;22;20023;-82
2024/01/05 21:14:43;;;;;;;11.65;7.55;;;;;;;3.54;100.00;149559.66;13085857;22;20040;-83
2024/01/05 21:19:45;;;;;;;10.57;6.50;;;;;;;3.63;100.00;149580.19;13060324;22;20016;-83
2024/01/05 21:24:50;;;;;;;8.75;6.93;;;;;;;3.44;100.00;149533.97;13087337;22;20015;-84
2024/01/05 21:29:52;;;;;;;8.68;7.25;;;;;;;3.75;100.00;149611.00;13066448;22;20062;-84
2024/01/05 21:34:57;;;;;;;9.77;6.72;;;;;;;3.50;100.00;149548.13;13089474;22;20026;-82
2024/01/05 21:39:59;;;;;;;7.05;6.00;;;;;;;3.32;100.00;149501.84;13090879;22;20011;-83
2024/01/05 21:45:01;;;;;;;7.38;5.82;;;;;;;3.09;100.00;149444.09;13087068;22;20019;-84
2024/01/05 21:50:03;;;;;;;14.27;6.30;;;;;;;3.25;100.00;149485.19;13089476;22;20019;-84
2024/01/05 21:55:05;;;;;;;7.03;6.30;;;;;;;3.29;100.00;149496.75;13094256;22;20015;-83
2024/01/05 22:00:07;;;;;;;8.88;6.93;;;;;;;3.34;100.00;149508.28;13057769;22;20018;-83
2024/01/05 22:05:09;;;;;;;12.95;7.55;;;;;;;3.10;100.00;149448.00;13087715;22;20019;-83
2024/01/05 22:10:11;;;;;;;7.72;6.53;;;;;;;3.20;100.00;149472.38;13058189;22;20011;-82
2024/01/05 22:15:13;;;;;;;13.25;7.45;;;;;;;2.77;100.00;149364.53;13081205;22;20015;-84
2024/01/05 22:20:15;;;;;;;10.32;7.47;;;;;;;2.74;100.00;149358.09;13080780;22;20090;-83
2024/01/05 22:25:16;;;;;;;8.95;7.15;;;;;;;2.61;100.00;149324.78;13048488;22;20019;-83
2024/01/05 22:30:19;;;;;;;14.40;8.23;;;;;;;2.63;100.00;149329.91;13076426;22;20011;-84
2024/01/05 22:35:21;;;;;;;11.80;8.88;;;;;;;2.89;100.00;149395.34;13077130;22;20019;-83
2024/01/05 22:40:25;;;;;;;12.20;7.50;;;;;;;2.98;100.00;149417.16;13077748;22;20022;-84
2024/01/05 22:45:27;;;;;;;11.20;9.13;;;;;;;2.90;100.00;149396.63;13079149;22;20030;-83
2024/01/05 22:50:28;;;;;;;9.32;7.90;;;;;;;2.83;100.00;149379.94;13076628;22;20039;-83
2024/01/05 22:55:30;;;;;;;8.70;7.85;;;;;;;2.69;100.00;149344.00;13081669;22;20076;-83
2024/01/05 23:00:33;;;;;;;11.10;7.85;;;;;;;2.67;100.00;149340.16;13081911;22;20012;-83
2024/01/05 23:05:35;;;;;;;8.57;7.43;;;;;;;2.64;100.00;149331.19;13081592;22;20466;-82
2024/01/05 23:10:37;;;;;;;9.55;8.45;;;;;;;2.69;100.00;149344.00;13078800;22;20319;-82
2024/01/05 23:15:39;;;;;;;13.63;9.23;;;;;;;2.61;100.00;149323.47;13081455;22;20019;-82